Main page
METAR-TAF:

METAR-TAF

Airports :

Boscobel Airport

Boscobel, Wisconsin, United States

latitude: 43-09-22N, longitude: 090-40-39W, elevation: 672 ft

Current weather observation

The report was made 50 minutes ago, at 20:53 UTC
Wind 15 mph from the South/Southwest with gusts up to 32 mph
Temperature 66°F
Humidity 24%
Pressure 29.82 in. Hg
Visibility: 10 miles
Clear sky

METAR: KOVS 222053Z AUTO 21013G28KT 10SM CLR 19/M02 A2982 RMK AO2 PK WND 21031/2040 SLP102 T01941017 58031

Time: 16:43 (21:43 UTC)


TAF: missing

Weather observations and forecasts of more than 4000 airports (METAR and TAF reports).

The available stations are represented by yellow and red dots on the map.

Hover mouse over dot to see the name of the station.

Then click to see weather observations and forecasts.

To change the map : click on the green buttons with a black cross to zoom in, on the green button with a dash to zoom out, or on the green arrows for adjacent maps.


METAR-TAF: